createdAt,value
2023-01-12T00:00:24.644Z,77.4
2023-01-12T00:06:00.123Z,77.1
2023-01-12T00:11:35.545Z,77.4
2023-01-12T00:17:10.741Z,77.1
2023-01-12T00:22:45.889Z,76.5
2023-01-12T00:28:21.043Z,76.5
2023-01-12T00:33:56.720Z,75.9
2023-01-12T00:39:32.298Z,75.6
2023-01-12T00:45:08.048Z,76.1
2023-01-12T00:50:44.642Z,76.4
2023-01-12T00:56:20.908Z,75.9
2023-01-12T01:01:56.635Z,76.1
2023-01-12T01:07:32.832Z,76.4
2023-01-12T01:13:08.106Z,75.5
2023-01-12T01:18:43.513Z,75.1
2023-01-12T01:24:18.991Z,74.8
2023-01-12T01:29:55.693Z,75.1
2023-01-12T01:35:31.231Z,75
2023-01-12T01:41:06.853Z,75.5
2023-01-12T01:46:42.540Z,75.4
2023-01-12T01:52:18.878Z,75
2023-01-12T01:57:53.870Z,75.1
2023-01-12T02:03:33.975Z,75.3
2023-01-12T02:09:12.329Z,75.3
2023-01-12T02:14:47.879Z,75.3
2023-01-12T02:20:25.454Z,75.5
2023-01-12T02:26:01.219Z,75.6
2023-01-12T02:31:37.672Z,75.8
2023-01-12T02:37:14.293Z,75.9
2023-01-12T02:42:50.994Z,75.6
2023-01-12T02:48:26.151Z,75.4
2023-01-12T02:54:01.958Z,75
2023-01-12T02:59:44.799Z,74.9
2023-01-12T03:05:20.150Z,74.4
2023-01-12T03:10:55.315Z,73.8
2023-01-12T03:16:32.469Z,73.7
2023-01-12T03:22:08.189Z,73.4
2023-01-12T03:27:43.147Z,73.6
2023-01-12T03:33:18.558Z,73.8
2023-01-12T03:38:53.507Z,74.3
2023-01-12T03:44:29.288Z,74.4
2023-01-12T03:50:04.838Z,74.5
2023-01-12T03:55:41.377Z,74.8
2023-01-12T04:01:16.583Z,75.1
2023-01-12T04:06:54.632Z,74.6
2023-01-12T04:12:30.130Z,74.6
2023-01-12T04:18:05.325Z,74.4
2023-01-12T04:23:40.767Z,74.1
2023-01-12T04:29:16.137Z,73.2
2023-01-12T04:34:52.592Z,72.5
2023-01-12T04:40:27.793Z,72.4
2023-01-12T04:46:04.259Z,72.7
2023-01-12T04:51:40.216Z,72.8
2023-01-12T04:57:15.439Z,73.1
2023-01-12T05:02:50.598Z,72.9
2023-01-12T05:08:25.401Z,72.7
2023-01-12T05:14:00.880Z,73
2023-01-12T05:19:35.842Z,72.5
2023-01-12T05:25:11.007Z,72.3
2023-01-12T05:30:46.398Z,72.1
2023-01-12T05:36:26.635Z,71.3
2023-01-12T05:42:01.862Z,71
2023-01-12T05:47:37.579Z,70.5
2023-01-12T05:53:12.857Z,69.8
2023-01-12T05:58:48.858Z,69.2
2023-01-12T06:04:24.779Z,68.9
2023-01-12T06:10:00.823Z,68.8
2023-01-12T06:15:36.371Z,68.6
2023-01-12T06:21:12.654Z,68
2023-01-12T06:26:48.025Z,69.4
2023-01-12T06:32:23.109Z,69.9
2023-01-12T06:37:59.414Z,69.7
2023-01-12T06:43:34.189Z,70.6
2023-01-12T06:49:09.092Z,70.6
2023-01-12T06:54:45.420Z,69
2023-01-12T07:00:20.614Z,69.3
2023-01-12T07:05:55.711Z,69.1
2023-01-12T07:11:32.751Z,69.9
2023-01-12T07:17:07.968Z,70.6
2023-01-12T07:22:43.041Z,70.7
2023-01-12T07:28:18.627Z,71.9
2023-01-12T07:33:54.036Z,77.3
2023-01-12T07:39:29.746Z,78.3
2023-01-12T07:45:05.282Z,79.4
2023-01-12T07:50:40.013Z,78.9
2023-01-12T07:57:06.194Z,79.2
2023-01-12T08:02:47.905Z,79.8
2023-01-12T08:08:23.122Z,80
2023-01-12T08:13:58.270Z,80
2023-01-12T08:19:34.561Z,80.9
2023-01-12T08:25:15.359Z,80.3
2023-01-12T08:30:56.486Z,77.4
2023-01-12T08:36:33.941Z,78
2023-01-12T08:42:20.461Z,80.4
2023-01-12T08:47:56.552Z,81.3
2023-01-12T08:53:32.616Z,82.7
2023-01-12T08:59:09.933Z,82.2
2023-01-12T09:04:45.715Z,78.2
2023-01-12T09:10:21.484Z,75.8
2023-01-12T09:16:13.490Z,68
2023-01-12T09:21:49.983Z,74.3
2023-01-12T09:27:25.707Z,76
2023-01-12T09:33:01.070Z,77.1
2023-01-12T09:38:36.202Z,77.4
2023-01-12T09:44:13.026Z,77.8
2023-01-12T09:50:12.465Z,76.7
2023-01-12T09:55:56.424Z,79.2
2023-01-12T10:01:32.342Z,76.1
2023-01-12T10:07:07.757Z,74.5
2023-01-12T10:13:03.871Z,73.3
2023-01-12T10:18:42.382Z,76
2023-01-12T10:24:23.118Z,71
2023-01-12T10:29:58.605Z,74.1
2023-01-12T10:35:34.601Z,77.4
2023-01-12T10:41:11.535Z,75.9
2023-01-12T10:46:48.335Z,77.4
2023-01-12T10:52:26.998Z,74.3
2023-01-12T10:58:02.197Z,76.2
2023-01-12T11:03:38.737Z,74.6
2023-01-12T11:09:15.899Z,77
2023-01-12T11:14:54.246Z,75.9
2023-01-12T11:20:30.283Z,75.8
2023-01-12T11:26:08.875Z,72.8
2023-01-12T11:31:46.992Z,66.5
2023-01-12T11:37:23.225Z,67.1
2023-01-12T11:42:58.950Z,70.9
2023-01-12T11:48:56.768Z,67.6
2023-01-12T11:54:29.819Z,62.8
2023-01-12T12:00:05.628Z,58.5
2023-01-12T12:05:42.041Z,60.2
2023-01-12T12:11:18.443Z,59.4
2023-01-12T12:16:54.690Z,62.9
2023-01-12T12:23:01.007Z,58.9
2023-01-12T12:28:36.127Z,59
2023-01-12T12:34:11.297Z,59.6
2023-01-12T12:39:50.597Z,54.2
2023-01-12T12:45:25.487Z,52.5
2023-01-12T12:51:01.337Z,53.9
2023-01-12T12:56:36.580Z,51.7
2023-01-12T13:02:33.357Z,50.2
2023-01-12T13:08:12.386Z,51.5
2023-01-12T13:13:47.241Z,51.4
2023-01-12T13:19:43.919Z,51.5
2023-01-12T13:25:20.968Z,51.5
2023-01-12T13:31:03.188Z,50.8
2023-01-12T13:36:38.950Z,48.5
2023-01-12T13:42:14.366Z,48.6
2023-01-12T13:48:14.484Z,53
2023-01-12T13:53:51.036Z,50.6
2023-01-12T13:59:26.622Z,47.7
2023-01-12T14:05:08.542Z,48.2
2023-01-12T14:10:43.209Z,48.7
2023-01-12T14:16:24.993Z,47.7
2023-01-12T14:22:01.068Z,43.7
2023-01-12T14:27:36.532Z,43.7
2023-01-12T14:33:14.648Z,40.4
2023-01-12T14:38:52.931Z,42.1
2023-01-12T14:44:29.424Z,43.7
2023-01-12T14:50:05.445Z,43.8
2023-01-12T14:55:41.308Z,47.6
2023-01-12T15:01:17.477Z,44.7
2023-01-12T15:06:54.531Z,48.4
2023-01-12T15:12:31.022Z,49.7
2023-01-12T15:18:07.687Z,51.2
2023-01-12T15:23:42.960Z,51.5
2023-01-12T15:29:18.282Z,53.1
2023-01-12T15:34:57.520Z,55
2023-01-12T15:40:33.290Z,55.6
2023-01-12T15:46:09.701Z,56.9
2023-01-12T15:51:45.629Z,59.8
2023-01-12T15:57:20.543Z,59.7
2023-01-12T16:02:55.461Z,58.4
2023-01-12T16:08:32.014Z,60.4
2023-01-12T16:14:07.554Z,64.3
2023-01-12T16:19:42.865Z,66.4
2023-01-12T16:25:19.485Z,63
2023-01-12T16:30:56.083Z,62.9
2023-01-12T16:36:31.026Z,65.9
2023-01-12T16:42:06.321Z,66.2
2023-01-12T16:48:03.474Z,67.6
2023-01-12T16:53:37.395Z,68.8
2023-01-12T16:59:21.782Z,68
2023-01-12T17:05:03.387Z,68.4
2023-01-12T17:10:42.236Z,69.4
2023-01-12T17:16:19.347Z,67.6
2023-01-12T17:22:07.015Z,68.7
2023-01-12T17:27:44.003Z,65.6
2023-01-12T17:33:20.712Z,64.4
2023-01-12T17:38:59.472Z,64.5
2023-01-12T17:44:34.928Z,64.4
2023-01-12T17:50:10.504Z,64.3
2023-01-12T17:55:49.955Z,64.3
2023-01-12T18:01:28.515Z,64.5
2023-01-12T18:07:06.390Z,64.7
2023-01-12T18:12:42.183Z,65
2023-01-12T18:18:17.541Z,65.8
2023-01-12T18:23:52.491Z,65.9
2023-01-12T18:29:28.537Z,66.4
2023-01-12T18:35:03.723Z,66.7
2023-01-12T18:40:39.010Z,66.5
2023-01-12T18:46:14.395Z,66.5
2023-01-12T18:51:49.613Z,66.4
2023-01-12T18:57:24.471Z,66.2
2023-01-12T19:03:01.741Z,66.2
2023-01-12T19:08:38.870Z,66.2
2023-01-12T19:14:14.808Z,66
2023-01-12T19:19:50.535Z,65.9
2023-01-12T19:25:25.590Z,66.1
2023-01-12T19:31:01.590Z,66.2
2023-01-12T19:36:38.198Z,66.3
2023-01-12T19:42:13.369Z,66.6
2023-01-12T19:47:48.840Z,66.4
2023-01-12T19:53:24.888Z,66.6
2023-01-12T19:59:00.973Z,66.9
2023-01-12T20:04:36.261Z,66.9
2023-01-12T20:10:12.820Z,67.1
2023-01-12T20:15:49.225Z,67.2
2023-01-12T20:21:24.780Z,67.5
2023-01-12T20:26:59.824Z,67.6
2023-01-12T20:32:34.988Z,68
2023-01-12T20:38:10.509Z,68.4
2023-01-12T20:43:45.966Z,68.5
2023-01-12T20:49:22.027Z,68.6
2023-01-12T20:54:57.832Z,68.3
2023-01-12T21:00:33.278Z,69
2023-01-12T21:06:08.373Z,69
2023-01-12T21:11:43.612Z,69
2023-01-12T21:17:19.085Z,69.1
2023-01-12T21:22:56.516Z,68.9
2023-01-12T21:28:31.722Z,68.9
2023-01-12T21:34:07.031Z,69.4
2023-01-12T21:39:43.030Z,69.4
2023-01-12T21:45:20.739Z,69.4
2023-01-12T21:50:56.274Z,69.3
2023-01-12T21:56:31.249Z,69.8
2023-01-12T22:02:08.196Z,69.8
2023-01-12T22:07:45.366Z,70.1
2023-01-12T22:13:21.428Z,70.6
2023-01-12T22:18:56.518Z,70.3
2023-01-12T22:24:32.671Z,70.1
2023-01-12T22:30:08.753Z,70.2
2023-01-12T22:35:43.921Z,70.8
2023-01-12T22:41:19.736Z,70.4
2023-01-12T22:46:54.493Z,70.9
2023-01-12T22:52:29.721Z,70.9
2023-01-12T22:58:06.027Z,70.9
2023-01-12T23:03:59.287Z,70.9
2023-01-12T23:09:34.165Z,70.9
2023-01-12T23:15:13.089Z,70.7
2023-01-12T23:20:48.817Z,70.9
2023-01-12T23:26:24.248Z,70.9
2023-01-12T23:31:59.999Z,70.6
2023-01-12T23:37:35.049Z,70.5
2023-01-12T23:43:12.263Z,70.3
2023-01-12T23:48:48.808Z,70.5
2023-01-12T23:54:29.861Z,70.9
